Here is the Quick Look data you requested

The Data originates at the National Weather Service, and is made available here by the UAlbany Department of Atmospheric and Environmental Sciences

Surface Observations

KHLX 151955Z AUTO 22006KT 10SM CLR 32/08 A3008 RMK AO2=
KHLX 152015Z AUTO 21011KT 170V230 10SM CLR 32/08 A3007 RMK AO2=
KHLX 152035Z AUTO 24005KT 10SM SCT110 31/08 A3007 RMK AO2=
KHLX 152055Z AUTO 22007KT 10SM SCT070 BKN100 BKN110 31/08 A3007 RMK AO2=
KHLX 152115Z AUTO 22010G16KT 10SM SCT080 BKN090 31/11 A3006 RMK AO2=
KHLX 152135Z AUTO 21011KT 10SM SCT070 SCT120 31/12 A3006 RMK AO2=
KHLX 152155Z AUTO 21007KT 10SM CLR 32/12 A3005 RMK AO2=
KHLX 152215Z AUTO 22008KT 10SM CLR 31/11 A3005 RMK AO2=
KHLX 152235Z AUTO 23007KT 10SM CLR 30/12 A3005 RMK AO2=
KHLX 152255Z AUTO 19004KT 10SM CLR 28/13 A3005 RMK AO2=
KHLX 152315Z AUTO 20004KT 10SM CLR 28/13 A3005 RMK AO2=
KHLX 152335Z AUTO 19004KT 10SM CLR 28/13 A3006 RMK AO2=
KHLX 152355Z AUTO 21005KT 10SM CLR 28/14 A3007 RMK AO2=
KHLX 160015Z AUTO 19003KT 10SM CLR 27/13 A3008 RMK AO2=
KHLX 160035Z AUTO 17004KT 10SM CLR 27/13 A3008 RMK AO2=
KHLX 160055Z AUTO 19005KT 10SM CLR 26/13 A3008 RMK AO2 LTG DSNT N=
KHLX 160115Z AUTO 20005KT 10SM CLR 26/13 A3008 RMK AO2=
KHLX 160135Z AUTO 21006KT 10SM CLR 26/13 A3008 RMK AO2=
KHLX 160155Z AUTO 21006KT 10SM CLR 25/13 A3009 RMK AO2 LTG DSNT NE=
KHLX 160215Z AUTO 19005KT 10SM CLR 25/13 A3008 RMK AO2=
KHLX 160235Z AUTO 19005KT 10SM CLR 25/13 A3007 RMK AO2 LTG DSNT S=
KHLX 160255Z AUTO 21003KT 10SM CLR 24/13 A3007 RMK AO2=
KHLX 160315Z AUTO 16005KT 10SM CLR 23/13 A3006 RMK AO2=
KHLX 160335Z AUTO 16006KT 10SM CLR 24/13 A3007 RMK AO2=
KHLX 160355Z AUTO 18005KT 10SM CLR 23/13 A3006 RMK AO2=
KHLX 160415Z AUTO 19006KT 10SM CLR 23/13 A3006 RMK AO2=
KHLX 160435Z AUTO 23004KT 10SM CLR 23/13 A3006 RMK AO2=
KHLX 160455Z AUTO 23004KT 10SM CLR 23/13 A3006 RMK AO2=
KHLX 160515Z AUTO 24003KT 10SM CLR 23/13 A3005 RMK AO2=
KHLX 160535Z AUTO 22004KT 10SM CLR 23/14 A3005 RMK AO2=
KHLX 160555Z AUTO 00000KT 7SM CLR 22/14 A3005 RMK AO2=
KHLX 160615Z AUTO 17005KT 10SM CLR 22/14 A3005 RMK AO2=
KHLX 160635Z AUTO 24003KT 10SM CLR 22/14 A3005 RMK AO2=
KHLX 160655Z AUTO 00000KT 10SM CLR 22/14 A3005 RMK AO2=
KHLX 160715Z AUTO 22004KT 10SM CLR 22/15 A3006 RMK AO2=
KHLX 160735Z AUTO 24004KT 10SM CLR 22/15 A3006 RMK AO2=
KHLX 160755Z AUTO 24004KT 10SM CLR 21/15 A3007 RMK AO2=
KHLX 160815Z AUTO 23003KT 10SM CLR 21/15 A3007 RMK AO2=
KHLX 160835Z AUTO 24004KT 10SM CLR 22/15 A3006 RMK AO2=
KHLX 160855Z AUTO 20004KT 10SM CLR 20/15 A3006 RMK AO2=
KHLX 160915Z AUTO 20005KT 10SM CLR 21/15 A3006 RMK AO2=
KHLX 160935Z AUTO 24004KT 10SM CLR 21/15 A3006 RMK AO2=
KHLX 160955Z AUTO 21003KT 10SM CLR 21/15 A3006 RMK AO2=
KHLX 161015Z AUTO 20004KT 10SM CLR 21/15 A3006 RMK AO2=
KHLX 161035Z AUTO 00000KT 10SM CLR 21/15 A3007 RMK AO2=
KHLX 161055Z AUTO 00000KT 10SM CLR 21/15 A3008 RMK AO2=
KHLX 161115Z AUTO 17003KT 10SM CLR 21/16 A3007 RMK AO2=
KHLX 161135Z AUTO 20004KT 10SM CLR 21/16 A3007 RMK AO2=
KHLX 161155Z AUTO 25003KT 10SM CLR 21/16 A3008 RMK AO2=
KHLX 161215Z AUTO 26004KT 10SM CLR 21/16 A3009 RMK AO2=
KHLX 161235Z AUTO 26003KT 10SM CLR 22/16 A3010 RMK AO2=
KHLX 161255Z AUTO 26003KT 10SM CLR 23/17 A3010 RMK AO2=
KHLX 161315Z AUTO 32007KT 10SM CLR 24/16 A3011 RMK AO2=
KHLX 161335Z AUTO 29006KT 10SM CLR 25/17 A3011 RMK AO2=
KHLX 161355Z AUTO 27004KT 10SM CLR 25/17 A3011 RMK AO2=
KHLX 161415Z AUTO 27006KT 10SM CLR 25/17 A3011 RMK AO2=
KHLX 161435Z AUTO 28008KT 10SM CLR 26/17 A3010 RMK AO2=
KHLX 161455Z AUTO 24005KT 10SM CLR 26/17 A3010 RMK AO2 LTG DSNT SW=
KHLX 161515Z AUTO 22007KT 10SM CLR 26/17 A3010 RMK AO2=
KHLX 161535Z AUTO 21005KT 10SM CLR 27/18 A3010 RMK AO2=
KHLX 161555Z AUTO 26005KT 10SM CLR 27/17 A3010 RMK AO2=
KHLX 161615Z AUTO 00000KT 10SM CLR 28/17 A3010 RMK AO2=
KHLX 161635Z AUTO 31008KT 10SM BKN030 BKN038 28/17 A3008 RMK AO2=
KHLX 161655Z AUTO 00000KT 4SM +RA SCT018 BKN041 OVC085 25/18 A3008 RMK AO2
 P0009=
KHLX 161715Z AUTO 18008KT 10SM -RA SCT018 BKN065 OVC110 24/13 A3008 RMK AO2
 P0017=
KHLX 161735Z AUTO 16010G20KT 10SM -RA SCT044 SCT055 BKN065 23/17 A3008 RMK AO2
 P0017=
KHLX 161755Z AUTO 14006KT 10SM SCT048 SCT055 SCT090 25/17 A3006 RMK AO2 LTG
 DSNT SW P0017=
KHLX 161815Z AUTO 03008KT 10SM SCT120 26/17 A3006 RMK AO2 LTG DSNT NE S AND SW=
KHLX 161835Z AUTO 00000KT 10SM CLR 27/17 A3005 RMK AO2 LTG DSNT SW=
KHLX 161855Z AUTO 13009KT 10SM CLR 28/18 A3004 RMK AO2 LTG DSNT S AND SW=
KHLX 161915Z AUTO 14006KT 10SM CLR 28/18 A3005 RMK AO2 LTG DSNT SE AND S=
KHLX 161935Z AUTO 17008KT 10SM SCT120 28/18 A3005 RMK AO2 LTG DSNT S=
KHLX 161955Z AUTO 18007G15KT 150V220 10SM CLR 26/17 A3004 RMK AO2=

Decoded Surface Observations


The weather observed at HILLSVILLE/GALAX, VA (KHLX) at 03:55 PM EDT was:
  The skies were clear.
  Temperature: 90F ( 32C)  Dewpoint:  46F (  8C)  Relative Humidity:  23%
  Winds from the SW (220 degs) at  7 mph.
  Altimeter:30.08 inches of mercury.
  The prevailing visibility was 10 miles.

The weather observed at HILLSVILLE/GALAX, VA (KHLX) at 04:15 PM EDT was:
  The skies were clear.
  Temperature: 90F ( 32C)  Dewpoint:  46F (  8C)  Relative Humidity:  23%
  Winds from the SW (210 degs) at 13 mph.
  Altimeter:30.07 inches of mercury.
  The prevailing visibility was 10 miles.

The weather observed at HILLSVILLE/GALAX, VA (KHLX) at 04:35 PM EDT was:
  The skies were partly cloudy.
  Temperature: 88F ( 31C)  Dewpoint:  46F (  8C)  Relative Humidity:  24%
  Winds from the SW (240 degs) at  6 mph.
  Altimeter:30.07 inches of mercury.
  The prevailing visibility was 10 miles.

The weather observed at HILLSVILLE/GALAX, VA (KHLX) at 04:55 PM EDT was:
  The skies were mostly cloudy.
  Temperature: 88F ( 31C)  Dewpoint:  46F (  8C)  Relative Humidity:  24%
  Winds from the SW (220 degs) at  8 mph.
  Altimeter:30.07 inches of mercury.
  The prevailing visibility was 10 miles.

The weather observed at HILLSVILLE/GALAX, VA (KHLX) at 05:15 PM EDT was:
  The skies were mostly cloudy.
  Temperature: 88F ( 31C)  Dewpoint:  52F ( 11C)  Relative Humidity:  29%
  Winds from the SW (220 degs) at 12 mph.
  Altimeter:30.06 inches of mercury.
  The prevailing visibility was 10 miles.

The weather observed at HILLSVILLE/GALAX, VA (KHLX) at 05:35 PM EDT was:
  The skies were partly cloudy.
  Temperature: 88F ( 31C)  Dewpoint:  54F ( 12C)  Relative Humidity:  31%
  Winds from the SW (210 degs) at 13 mph.
  Altimeter:30.06 inches of mercury.
  The prevailing visibility was 10 miles.

The weather observed at HILLSVILLE/GALAX, VA (KHLX) at 05:55 PM EDT was:
  The skies were clear.
  Temperature: 90F ( 32C)  Dewpoint:  54F ( 12C)  Relative Humidity:  29%
  Winds from the SW (210 degs) at  8 mph.
  Altimeter:30.05 inches of mercury.
  The prevailing visibility was 10 miles.

The weather observed at HILLSVILLE/GALAX, VA (KHLX) at 06:15 PM EDT was:
  The skies were clear.
  Temperature: 88F ( 31C)  Dewpoint:  52F ( 11C)  Relative Humidity:  29%
  Winds from the SW (220 degs) at  9 mph.
  Altimeter:30.05 inches of mercury.
  The prevailing visibility was 10 miles.

The weather observed at HILLSVILLE/GALAX, VA (KHLX) at 06:35 PM EDT was:
  The skies were clear.
  Temperature: 86F ( 30C)  Dewpoint:  54F ( 12C)  Relative Humidity:  33%
  Winds from the SW (230 degs) at  8 mph.
  Altimeter:30.05 inches of mercury.
  The prevailing visibility was 10 miles.

The weather observed at HILLSVILLE/GALAX, VA (KHLX) at 06:55 PM EDT was:
  The skies were clear.
  Temperature: 82F ( 28C)  Dewpoint:  55F ( 13C)  Relative Humidity:  40%
  Winds from the S  (190 degs) at  5 mph.
  Altimeter:30.05 inches of mercury.
  The prevailing visibility was 10 miles.

The weather observed at HILLSVILLE/GALAX, VA (KHLX) at 07:15 PM EDT was:
  The skies were clear.
  Temperature: 82F ( 28C)  Dewpoint:  55F ( 13C)  Relative Humidity:  40%
  Winds from the SSW(200 degs) at  5 mph.
  Altimeter:30.05 inches of mercury.
  The prevailing visibility was 10 miles.

The weather observed at HILLSVILLE/GALAX, VA (KHLX) at 07:35 PM EDT was:
  The skies were clear.
  Temperature: 82F ( 28C)  Dewpoint:  55F ( 13C)  Relative Humidity:  40%
  Winds from the S  (190 degs) at  5 mph.
  Altimeter:30.06 inches of mercury.
  The prevailing visibility was 10 miles.

The weather observed at HILLSVILLE/GALAX, VA (KHLX) at 07:55 PM EDT was:
  The skies were clear.
  Temperature: 82F ( 28C)  Dewpoint:  57F ( 14C)  Relative Humidity:  42%
  Winds from the SW (210 degs) at  6 mph.
  Altimeter:30.07 inches of mercury.
  The prevailing visibility was 10 miles.

The weather observed at HILLSVILLE/GALAX, VA (KHLX) at 08:15 PM EDT was:
  The skies were clear.
  Temperature: 81F ( 27C)  Dewpoint:  55F ( 13C)  Relative Humidity:  42%
  Winds from the S  (190 degs) at  3 mph.
  Altimeter:30.08 inches of mercury.
  The prevailing visibility was 10 miles.

The weather observed at HILLSVILLE/GALAX, VA (KHLX) at 08:35 PM EDT was:
  The skies were clear.
  Temperature: 81F ( 27C)  Dewpoint:  55F ( 13C)  Relative Humidity:  42%
  Winds from the S  (170 degs) at  5 mph.
  Altimeter:30.08 inches of mercury.
  The prevailing visibility was 10 miles.

The weather observed at HILLSVILLE/GALAX, VA (KHLX) at 08:55 PM EDT was:
  The skies were clear.
  Temperature: 79F ( 26C)  Dewpoint:  55F ( 13C)  Relative Humidity:  45%
  Winds from the S  (190 degs) at  6 mph.
  Altimeter:30.08 inches of mercury.
  The prevailing visibility was 10 miles.

The weather observed at HILLSVILLE/GALAX, VA (KHLX) at 09:15 PM EDT was:
  The skies were clear.
  Temperature: 79F ( 26C)  Dewpoint:  55F ( 13C)  Relative Humidity:  45%
  Winds from the SSW(200 degs) at  6 mph.
  Altimeter:30.08 inches of mercury.
  The prevailing visibility was 10 miles.

The weather observed at HILLSVILLE/GALAX, VA (KHLX) at 09:35 PM EDT was:
  The skies were clear.
  Temperature: 79F ( 26C)  Dewpoint:  55F ( 13C)  Relative Humidity:  45%
  Winds from the SW (210 degs) at  7 mph.
  Altimeter:30.08 inches of mercury.
  The prevailing visibility was 10 miles.

The weather observed at HILLSVILLE/GALAX, VA (KHLX) at 09:55 PM EDT was:
  The skies were clear.
  Temperature: 77F ( 25C)  Dewpoint:  55F ( 13C)  Relative Humidity:  47%
  Winds from the SW (210 degs) at  7 mph.
  Altimeter:30.09 inches of mercury.
  The prevailing visibility was 10 miles.

The weather observed at HILLSVILLE/GALAX, VA (KHLX) at 10:15 PM EDT was:
  The skies were clear.
  Temperature: 77F ( 25C)  Dewpoint:  55F ( 13C)  Relative Humidity:  47%
  Winds from the S  (190 degs) at  6 mph.
  Altimeter:30.08 inches of mercury.
  The prevailing visibility was 10 miles.

The weather observed at HILLSVILLE/GALAX, VA (KHLX) at 10:35 PM EDT was:
  The skies were clear.
  Temperature: 77F ( 25C)  Dewpoint:  55F ( 13C)  Relative Humidity:  47%
  Winds from the S  (190 degs) at  6 mph.
  Altimeter:30.07 inches of mercury.
  The prevailing visibility was 10 miles.

The weather observed at HILLSVILLE/GALAX, VA (KHLX) at 10:55 PM EDT was:
  The skies were clear.
  Temperature: 75F ( 24C)  Dewpoint:  55F ( 13C)  Relative Humidity:  50%
  Winds from the SW (210 degs) at  3 mph.
  Altimeter:30.07 inches of mercury.
  The prevailing visibility was 10 miles.

The weather observed at HILLSVILLE/GALAX, VA (KHLX) at 11:15 PM EDT was:
  The skies were clear.
  Temperature: 73F ( 23C)  Dewpoint:  55F ( 13C)  Relative Humidity:  53%
  Winds from the SSE(160 degs) at  6 mph.
  Altimeter:30.06 inches of mercury.
  The prevailing visibility was 10 miles.

The weather observed at HILLSVILLE/GALAX, VA (KHLX) at 11:35 PM EDT was:
  The skies were clear.
  Temperature: 75F ( 24C)  Dewpoint:  55F ( 13C)  Relative Humidity:  50%
  Winds from the SSE(160 degs) at  7 mph.
  Altimeter:30.07 inches of mercury.
  The prevailing visibility was 10 miles.

The weather observed at HILLSVILLE/GALAX, VA (KHLX) at 11:55 PM EDT was:
  The skies were clear.
  Temperature: 73F ( 23C)  Dewpoint:  55F ( 13C)  Relative Humidity:  53%
  Winds from the S  (180 degs) at  6 mph.
  Altimeter:30.06 inches of mercury.
  The prevailing visibility was 10 miles.

The weather observed at HILLSVILLE/GALAX, VA (KHLX) at 12:15 AM EDT was:
  The skies were clear.
  Temperature: 73F ( 23C)  Dewpoint:  55F ( 13C)  Relative Humidity:  53%
  Winds from the S  (190 degs) at  7 mph.
  Altimeter:30.06 inches of mercury.
  The prevailing visibility was 10 miles.

The weather observed at HILLSVILLE/GALAX, VA (KHLX) at 12:35 AM EDT was:
  The skies were clear.
  Temperature: 73F ( 23C)  Dewpoint:  55F ( 13C)  Relative Humidity:  53%
  Winds from the SW (230 degs) at  5 mph.
  Altimeter:30.06 inches of mercury.
  The prevailing visibility was 10 miles.

The weather observed at HILLSVILLE/GALAX, VA (KHLX) at 12:55 AM EDT was:
  The skies were clear.
  Temperature: 73F ( 23C)  Dewpoint:  55F ( 13C)  Relative Humidity:  53%
  Winds from the SW (230 degs) at  5 mph.
  Altimeter:30.06 inches of mercury.
  The prevailing visibility was 10 miles.

The weather observed at HILLSVILLE/GALAX, VA (KHLX) at 01:15 AM EDT was:
  The skies were clear.
  Temperature: 73F ( 23C)  Dewpoint:  55F ( 13C)  Relative Humidity:  53%
  Winds from the SW (240 degs) at  3 mph.
  Altimeter:30.05 inches of mercury.
  The prevailing visibility was 10 miles.

The weather observed at HILLSVILLE/GALAX, VA (KHLX) at 01:35 AM EDT was:
  The skies were clear.
  Temperature: 73F ( 23C)  Dewpoint:  57F ( 14C)  Relative Humidity:  57%
  Winds from the SW (220 degs) at  5 mph.
  Altimeter:30.05 inches of mercury.
  The prevailing visibility was 10 miles.

The weather observed at HILLSVILLE/GALAX, VA (KHLX) at 01:55 AM EDT was:
  The skies were clear.
  Temperature: 72F ( 22C)  Dewpoint:  57F ( 14C)  Relative Humidity:  60%
  Winds from the CLM(CLM degs) at  0 mph.
  Altimeter:30.05 inches of mercury.
  The prevailing visibility was 7 miles.

The weather observed at HILLSVILLE/GALAX, VA (KHLX) at 02:15 AM EDT was:
  The skies were clear.
  Temperature: 72F ( 22C)  Dewpoint:  57F ( 14C)  Relative Humidity:  60%
  Winds from the S  (170 degs) at  6 mph.
  Altimeter:30.05 inches of mercury.
  The prevailing visibility was 10 miles.

The weather observed at HILLSVILLE/GALAX, VA (KHLX) at 02:35 AM EDT was:
  The skies were clear.
  Temperature: 72F ( 22C)  Dewpoint:  57F ( 14C)  Relative Humidity:  60%
  Winds from the SW (240 degs) at  3 mph.
  Altimeter:30.05 inches of mercury.
  The prevailing visibility was 10 miles.

The weather observed at HILLSVILLE/GALAX, VA (KHLX) at 02:55 AM EDT was:
  The skies were clear.
  Temperature: 72F ( 22C)  Dewpoint:  57F ( 14C)  Relative Humidity:  60%
  Winds from the CLM(CLM degs) at  0 mph.
  Altimeter:30.05 inches of mercury.
  The prevailing visibility was 10 miles.

The weather observed at HILLSVILLE/GALAX, VA (KHLX) at 03:15 AM EDT was:
  The skies were clear.
  Temperature: 72F ( 22C)  Dewpoint:  59F ( 15C)  Relative Humidity:  64%
  Winds from the SW (220 degs) at  5 mph.
  Altimeter:30.06 inches of mercury.
  The prevailing visibility was 10 miles.

The weather observed at HILLSVILLE/GALAX, VA (KHLX) at 03:35 AM EDT was:
  The skies were clear.
  Temperature: 72F ( 22C)  Dewpoint:  59F ( 15C)  Relative Humidity:  64%
  Winds from the SW (240 degs) at  5 mph.
  Altimeter:30.06 inches of mercury.
  The prevailing visibility was 10 miles.

The weather observed at HILLSVILLE/GALAX, VA (KHLX) at 03:55 AM EDT was:
  The skies were clear.
  Temperature: 70F ( 21C)  Dewpoint:  59F ( 15C)  Relative Humidity:  69%
  Winds from the SW (240 degs) at  5 mph.
  Altimeter:30.07 inches of mercury.
  The prevailing visibility was 10 miles.

The weather observed at HILLSVILLE/GALAX, VA (KHLX) at 04:15 AM EDT was:
  The skies were clear.
  Temperature: 70F ( 21C)  Dewpoint:  59F ( 15C)  Relative Humidity:  69%
  Winds from the SW (230 degs) at  3 mph.
  Altimeter:30.07 inches of mercury.
  The prevailing visibility was 10 miles.

The weather observed at HILLSVILLE/GALAX, VA (KHLX) at 04:35 AM EDT was:
  The skies were clear.
  Temperature: 72F ( 22C)  Dewpoint:  59F ( 15C)  Relative Humidity:  64%
  Winds from the SW (240 degs) at  5 mph.
  Altimeter:30.06 inches of mercury.
  The prevailing visibility was 10 miles.

The weather observed at HILLSVILLE/GALAX, VA (KHLX) at 04:55 AM EDT was:
  The skies were clear.
  Temperature: 68F ( 20C)  Dewpoint:  59F ( 15C)  Relative Humidity:  73%
  Winds from the SSW(200 degs) at  5 mph.
  Altimeter:30.06 inches of mercury.
  The prevailing visibility was 10 miles.

The weather observed at HILLSVILLE/GALAX, VA (KHLX) at 05:15 AM EDT was:
  The skies were clear.
  Temperature: 70F ( 21C)  Dewpoint:  59F ( 15C)  Relative Humidity:  69%
  Winds from the SSW(200 degs) at  6 mph.
  Altimeter:30.06 inches of mercury.
  The prevailing visibility was 10 miles.

The weather observed at HILLSVILLE/GALAX, VA (KHLX) at 05:35 AM EDT was:
  The skies were clear.
  Temperature: 70F ( 21C)  Dewpoint:  59F ( 15C)  Relative Humidity:  69%
  Winds from the SW (240 degs) at  5 mph.
  Altimeter:30.06 inches of mercury.
  The prevailing visibility was 10 miles.

The weather observed at HILLSVILLE/GALAX, VA (KHLX) at 05:55 AM EDT was:
  The skies were clear.
  Temperature: 70F ( 21C)  Dewpoint:  59F ( 15C)  Relative Humidity:  69%
  Winds from the SW (210 degs) at  3 mph.
  Altimeter:30.06 inches of mercury.
  The prevailing visibility was 10 miles.

The weather observed at HILLSVILLE/GALAX, VA (KHLX) at 06:15 AM EDT was:
  The skies were clear.
  Temperature: 70F ( 21C)  Dewpoint:  59F ( 15C)  Relative Humidity:  69%
  Winds from the SSW(200 degs) at  5 mph.
  Altimeter:30.06 inches of mercury.
  The prevailing visibility was 10 miles.

The weather observed at HILLSVILLE/GALAX, VA (KHLX) at 06:35 AM EDT was:
  The skies were clear.
  Temperature: 70F ( 21C)  Dewpoint:  59F ( 15C)  Relative Humidity:  69%
  Winds from the CLM(CLM degs) at  0 mph.
  Altimeter:30.07 inches of mercury.
  The prevailing visibility was 10 miles.

The weather observed at HILLSVILLE/GALAX, VA (KHLX) at 06:55 AM EDT was:
  The skies were clear.
  Temperature: 70F ( 21C)  Dewpoint:  59F ( 15C)  Relative Humidity:  69%
  Winds from the CLM(CLM degs) at  0 mph.
  Altimeter:30.08 inches of mercury.
  The prevailing visibility was 10 miles.

The weather observed at HILLSVILLE/GALAX, VA (KHLX) at 07:15 AM EDT was:
  The skies were clear.
  Temperature: 70F ( 21C)  Dewpoint:  61F ( 16C)  Relative Humidity:  73%
  Winds from the S  (170 degs) at  3 mph.
  Altimeter:30.07 inches of mercury.
  The prevailing visibility was 10 miles.

The weather observed at HILLSVILLE/GALAX, VA (KHLX) at 07:35 AM EDT was:
  The skies were clear.
  Temperature: 70F ( 21C)  Dewpoint:  61F ( 16C)  Relative Humidity:  73%
  Winds from the SSW(200 degs) at  5 mph.
  Altimeter:30.07 inches of mercury.
  The prevailing visibility was 10 miles.

The weather observed at HILLSVILLE/GALAX, VA (KHLX) at 07:55 AM EDT was:
  The skies were clear.
  Temperature: 70F ( 21C)  Dewpoint:  61F ( 16C)  Relative Humidity:  73%
  Winds from the WSW(250 degs) at  3 mph.
  Altimeter:30.08 inches of mercury.
  The prevailing visibility was 10 miles.

The weather observed at HILLSVILLE/GALAX, VA (KHLX) at 08:15 AM EDT was:
  The skies were clear.
  Temperature: 70F ( 21C)  Dewpoint:  61F ( 16C)  Relative Humidity:  73%
  Winds from the W  (260 degs) at  5 mph.
  Altimeter:30.09 inches of mercury.
  The prevailing visibility was 10 miles.

The weather observed at HILLSVILLE/GALAX, VA (KHLX) at 08:35 AM EDT was:
  The skies were clear.
  Temperature: 72F ( 22C)  Dewpoint:  61F ( 16C)  Relative Humidity:  69%
  Winds from the W  (260 degs) at  3 mph.
  Altimeter:30.10 inches of mercury.
  The prevailing visibility was 10 miles.

The weather observed at HILLSVILLE/GALAX, VA (KHLX) at 08:55 AM EDT was:
  The skies were clear.
  Temperature: 73F ( 23C)  Dewpoint:  63F ( 17C)  Relative Humidity:  69%
  Winds from the W  (260 degs) at  3 mph.
  Altimeter:30.10 inches of mercury.
  The prevailing visibility was 10 miles.

The weather observed at HILLSVILLE/GALAX, VA (KHLX) at 09:15 AM EDT was:
  The skies were clear.
  Temperature: 75F ( 24C)  Dewpoint:  61F ( 16C)  Relative Humidity:  61%
  Winds from the NW (320 degs) at  8 mph.
  Altimeter:30.11 inches of mercury.
  The prevailing visibility was 10 miles.

The weather observed at HILLSVILLE/GALAX, VA (KHLX) at 09:35 AM EDT was:
  The skies were clear.
  Temperature: 77F ( 25C)  Dewpoint:  63F ( 17C)  Relative Humidity:  61%
  Winds from the WNW(290 degs) at  7 mph.
  Altimeter:30.11 inches of mercury.
  The prevailing visibility was 10 miles.

The weather observed at HILLSVILLE/GALAX, VA (KHLX) at 09:55 AM EDT was:
  The skies were clear.
  Temperature: 77F ( 25C)  Dewpoint:  63F ( 17C)  Relative Humidity:  61%
  Winds from the W  (270 degs) at  5 mph.
  Altimeter:30.11 inches of mercury.
  The prevailing visibility was 10 miles.

The weather observed at HILLSVILLE/GALAX, VA (KHLX) at 10:15 AM EDT was:
  The skies were clear.
  Temperature: 77F ( 25C)  Dewpoint:  63F ( 17C)  Relative Humidity:  61%
  Winds from the W  (270 degs) at  7 mph.
  Altimeter:30.11 inches of mercury.
  The prevailing visibility was 10 miles.

The weather observed at HILLSVILLE/GALAX, VA (KHLX) at 10:35 AM EDT was:
  The skies were clear.
  Temperature: 79F ( 26C)  Dewpoint:  63F ( 17C)  Relative Humidity:  58%
  Winds from the W  (280 degs) at  9 mph.
  Altimeter:30.10 inches of mercury.
  The prevailing visibility was 10 miles.

The weather observed at HILLSVILLE/GALAX, VA (KHLX) at 10:55 AM EDT was:
  The skies were clear.
  Temperature: 79F ( 26C)  Dewpoint:  63F ( 17C)  Relative Humidity:  58%
  Winds from the SW (240 degs) at  6 mph.
  Altimeter:30.10 inches of mercury.
  The prevailing visibility was 10 miles.

The weather observed at HILLSVILLE/GALAX, VA (KHLX) at 11:15 AM EDT was:
  The skies were clear.
  Temperature: 79F ( 26C)  Dewpoint:  63F ( 17C)  Relative Humidity:  58%
  Winds from the SW (220 degs) at  8 mph.
  Altimeter:30.10 inches of mercury.
  The prevailing visibility was 10 miles.

The weather observed at HILLSVILLE/GALAX, VA (KHLX) at 11:35 AM EDT was:
  The skies were clear.
  Temperature: 81F ( 27C)  Dewpoint:  64F ( 18C)  Relative Humidity:  58%
  Winds from the SW (210 degs) at  6 mph.
  Altimeter:30.10 inches of mercury.
  The prevailing visibility was 10 miles.

The weather observed at HILLSVILLE/GALAX, VA (KHLX) at 11:55 AM EDT was:
  The skies were clear.
  Temperature: 81F ( 27C)  Dewpoint:  63F ( 17C)  Relative Humidity:  54%
  Winds from the W  (260 degs) at  6 mph.
  Altimeter:30.10 inches of mercury.
  The prevailing visibility was 10 miles.

The weather observed at HILLSVILLE/GALAX, VA (KHLX) at 12:15 PM EDT was:
  The skies were clear.
  Temperature: 82F ( 28C)  Dewpoint:  63F ( 17C)  Relative Humidity:  51%
  Winds from the CLM(CLM degs) at  0 mph.
  Altimeter:30.10 inches of mercury.
  The prevailing visibility was 10 miles.

The weather observed at HILLSVILLE/GALAX, VA (KHLX) at 12:35 PM EDT was:
  The skies were mostly cloudy.
  Temperature: 82F ( 28C)  Dewpoint:  63F ( 17C)  Relative Humidity:  51%
  Winds from the NW (310 degs) at  9 mph.
  Altimeter:30.08 inches of mercury.
  The prevailing visibility was 10 miles.

The weather observed at HILLSVILLE/GALAX, VA (KHLX) at 12:55 PM EDT was:
  The skies were cloudy.
  The weather reported was heavy rain.
  Temperature: 77F ( 25C)  Dewpoint:  64F ( 18C)  Relative Humidity:  65%
  Winds from the CLM(CLM degs) at  0 mph.
  Altimeter:30.08 inches of mercury.
  The prevailing visibility was 4 miles.
  There has been 0.09 inches of precipitation in the past hour.

The weather observed at HILLSVILLE/GALAX, VA (KHLX) at 01:15 PM EDT was:
  The skies were cloudy.
  The weather reported was light rain.
  Temperature: 75F ( 24C)  Dewpoint:  55F ( 13C)  Relative Humidity:  50%
  Winds from the S  (180 degs) at  9 mph.
  Altimeter:30.08 inches of mercury.
  The prevailing visibility was 10 miles.
  There has been 0.17 inches of precipitation in the past hour.

The weather observed at HILLSVILLE/GALAX, VA (KHLX) at 01:35 PM EDT was:
  The skies were mostly cloudy.
  The weather reported was light rain.
  Temperature: 73F ( 23C)  Dewpoint:  63F ( 17C)  Relative Humidity:  69%
  Winds from the SSE(160 degs) at 12 mph.
  Altimeter:30.08 inches of mercury.
  The prevailing visibility was 10 miles.
  There has been 0.17 inches of precipitation in the past hour.

The weather observed at HILLSVILLE/GALAX, VA (KHLX) at 01:55 PM EDT was:
  The skies were partly cloudy.
  Temperature: 77F ( 25C)  Dewpoint:  63F ( 17C)  Relative Humidity:  61%
  Winds from the SE (140 degs) at  7 mph.
  Altimeter:30.06 inches of mercury.
  The prevailing visibility was 10 miles.
  There has been 0.17 inches of precipitation in the past hour.

The weather observed at HILLSVILLE/GALAX, VA (KHLX) at 02:15 PM EDT was:
  The skies were partly cloudy.
  Temperature: 79F ( 26C)  Dewpoint:  63F ( 17C)  Relative Humidity:  58%
  Winds from the NE (030 degs) at  9 mph.
  Altimeter:30.06 inches of mercury.
  The prevailing visibility was 10 miles.

The weather observed at HILLSVILLE/GALAX, VA (KHLX) at 02:35 PM EDT was:
  The skies were clear.
  Temperature: 81F ( 27C)  Dewpoint:  63F ( 17C)  Relative Humidity:  54%
  Winds from the CLM(CLM degs) at  0 mph.
  Altimeter:30.05 inches of mercury.
  The prevailing visibility was 10 miles.

The weather observed at HILLSVILLE/GALAX, VA (KHLX) at 02:55 PM EDT was:
  The skies were clear.
  Temperature: 82F ( 28C)  Dewpoint:  64F ( 18C)  Relative Humidity:  55%
  Winds from the SE (130 degs) at 10 mph.
  Altimeter:30.04 inches of mercury.
  The prevailing visibility was 10 miles.

The weather observed at HILLSVILLE/GALAX, VA (KHLX) at 03:15 PM EDT was:
  The skies were clear.
  Temperature: 82F ( 28C)  Dewpoint:  64F ( 18C)  Relative Humidity:  55%
  Winds from the SE (140 degs) at  7 mph.
  Altimeter:30.05 inches of mercury.
  The prevailing visibility was 10 miles.

The weather observed at HILLSVILLE/GALAX, VA (KHLX) at 03:35 PM EDT was:
  The skies were partly cloudy.
  Temperature: 82F ( 28C)  Dewpoint:  64F ( 18C)  Relative Humidity:  55%
  Winds from the S  (170 degs) at  9 mph.
  Altimeter:30.05 inches of mercury.
  The prevailing visibility was 10 miles.

The weather observed at HILLSVILLE/GALAX, VA (KHLX) at 03:55 PM EDT was:
  The skies were clear.
  Temperature: 79F ( 26C)  Dewpoint:  63F ( 17C)  Relative Humidity:  58%
  Winds from the S  (180 degs) at  8 mph.
  Altimeter:30.04 inches of mercury.
  The prevailing visibility was 10 miles.

Short Range Forecast

Sorry no data found for hlx
Make sure hlx is a valid station
You might need to specify a nearby major city
Try Again

Zone Forecast

VAZ016-170300-
Carroll-
Including the city of Galax
302 PM EDT Tue Jul 16 2024

.THIS AFTERNOON...Mostly sunny with a slight chance of showers
and thunderstorms. Hot. Near steady temperature in the upper 80s.
Southwest winds 5 to 10 mph. Chance of rain 20 percent.
.TONIGHT...Partly cloudy. A slight chance of showers and
thunderstorms in the evening. Humid with lows in the upper 60s.
Southwest winds 5 to 10 mph, becoming west after midnight. Chance
of rain 20 percent.
.WEDNESDAY...Sunny in the morning, then partly sunny with showers
with thunderstorms likely in the afternoon. Humid with highs in
the mid 80s. West winds 5 to 10 mph. Chance of rain 80 percent.
.WEDNESDAY NIGHT...Mostly cloudy. Showers and thunderstorms
likely, mainly in the evening. Humid with lows in the upper 60s.
West winds 5 to 10 mph. Chance of rain 70 percent.
.THURSDAY...A chance of thunderstorms. Showers with highs in the
upper 70s. Northwest winds around 5 mph. Chance of rain
80 percent.
.THURSDAY NIGHT...Mostly cloudy. Showers with a chance of
thunderstorms in the evening, then a chance of showers after
midnight. Lows in the lower 60s. Chance of rain 80 percent.
.FRIDAY AND FRIDAY NIGHT...Mostly cloudy. A chance of showers and
thunderstorms. Highs in the mid 70s. Lows in the mid 60s. Chance
of rain 50 percent.
.SATURDAY AND SATURDAY NIGHT...Mostly cloudy with showers with a
chance of thunderstorms. Highs in the upper 70s. Lows in the
lower 60s. Chance of rain 80 percent.
.SUNDAY THROUGH MONDAY...Mostly cloudy with showers likely with a
chance of thunderstorms. Highs in the upper 70s. Lows in the
lower 60s. Chance of rain 70 percent.


State Forecast

Sorry no data found for hlx
Make sure hlx is a valid station
You might need to specify a nearby major city
Try Again

State Forecast Discussion

Sorry no data found for hlx
Make sure hlx is a valid station
You might need to specify a nearby major city
Try Again

GFS Short-Range Model Output Statistics (MOS) Forecast

KHLX   GFS MOS GUIDANCE    7/16/2024  1200 UTC
DT /JULY 16/JULY 17                /JULY 18                /JULY 19
HR   18 21 00 03 06 09 12 15 18 21 00 03 06 09 12 15 18 21 00 06 12
N/X                    69          86          66          79    61
TMP  85 84 80 74 71 70 71 81 82 79 75 70 68 67 67 73 75 75 71 64 63
DPT  67 67 69 68 68 67 68 71 70 71 72 70 68 66 66 68 66 64 64 61 60
CLD  SC BK OV OV BK BK BK BK OV OV OV OV OV OV OV OV OV OV BK BK FW
WDR  25 24 21 23 21 23 24 26 25 27 28 22 24 30 32 33 32 31 32 32 01
WSP  07 06 06 04 03 03 04 07 10 10 04 03 01 03 02 05 05 05 04 03 02
P06        15    27     9    12    50    53    42    45    37  9  7
P12                    35          74          64          67    13
Q06         0     0     0     0     1     1     1     1     0  0  0
Q12                     0           2           1           2     0
T06     32/19 23/ 4  2/ 1 15/ 7 56/25 28/ 4 11/ 2 20/ 5 30/16  1/ 0
T12           50/19       15/ 8       71/26       27/ 6    30/16
CIG   8  8  8  8  8  8  8  8  7  8  8  6  2  3  4  6  6  7  8  8  8
VIS   7  7  7  7  7  7  7  7  7  7  7  5  2  3  5  7  7  7  7  7  7
OBV   N  N  N  N  N  N  N  N  N  N  N BR FG BR BR  N  N  N  N  N  N

GFS Long-Range Model Output Statistics (MOS) Forecast

KHLX   GFSX MOS GUIDANCE   7/16/2024  1200 UTC
FHR  24  36| 48  60| 72  84| 96 108|120 132|144 156|168 180|192
     WED 17| THU 18| FRI 19| SAT 20| SUN 21| MON 22| TUE 23|WED CLIMO
N/X  69  86| 66  79| 61  79| 64  77| 64  82| 64  80| 64  80| 63 59 81
TMP  71  75| 67  71| 63  72| 66  70| 66  74| 66  72| 66  73| 66
DPT  68  72| 66  64| 60  66| 65  68| 66  68| 64  67| 65  69| 65
CLD  OV  OV| OV  OV| PC  OV| OV  OV| OV  OV| OV  OV| OV  OV| OV
WND   6  10|  4   5|  4   4|  2   4|  3   6|  3   6|  4   7|  4
P12  35  74| 64  67| 13  23| 39  61| 48  37| 39  53| 43  45| 35999999
P24      74|     82|     34|     69|     61|     66|     69|      999
Q12   0   2|  1   2|  0   0|  0   3|  1   0|  1   3|       |
Q24       2|      3|      0|      3|      2|      4|       |
T12  23  56| 34  36|  7  31| 14  49| 24  43| 21  42| 18  39| 14
T24        | 64    | 36    | 31    | 57    | 48    | 42    | 39

NGM Model Output Statistics (MOS) Forecast

Climatological Summary

Sorry no data found for hlx
Make sure hlx is a valid station
You might need to specify a nearby major city
Try Again

Watch and Warning Statment

Sorry no data found for hlx
Make sure hlx is a valid station
You might need to specify a nearby major city
or it could be THERE ARE NO WATCHES OR WARNINGS for hlx
Try Again

Park/Ski Recreation Report/Forecast

Sorry no data found for hlx
Make sure hlx is a valid station
You might need to specify a nearby major city
Try Again